createdAt,value
2017-10-29T00:01:10.475Z,99.90
2017-10-29T00:03:38.200Z,99.90
2017-10-29T00:06:05.704Z,99.90
2017-10-29T00:08:33.173Z,99.90
2017-10-29T00:11:00.719Z,99.90
2017-10-29T00:13:29.689Z,99.90
2017-10-29T00:15:57.156Z,99.90
2017-10-29T00:18:24.736Z,99.90
2017-10-29T00:20:52.296Z,99.90
2017-10-29T00:23:21.417Z,99.90
2017-10-29T00:25:49.827Z,99.90
2017-10-29T00:28:17.295Z,99.90
2017-10-29T00:30:44.754Z,99.90
2017-10-29T00:33:12.210Z,99.90
2017-10-29T00:35:39.682Z,99.90
2017-10-29T00:38:07.193Z,99.90
2017-10-29T00:40:35.432Z,99.90
2017-10-29T00:43:02.886Z,99.90
2017-10-29T00:45:30.346Z,99.90
2017-10-29T00:47:57.808Z,99.90
2017-10-29T00:50:25.285Z,99.90
2017-10-29T00:52:52.746Z,99.90
2017-10-29T00:55:20.215Z,99.90
2017-10-29T00:57:48.459Z,99.90
2017-10-29T01:00:16.014Z,99.90
2017-10-29T01:02:43.475Z,99.90
2017-10-29T01:05:11.040Z,99.90
2017-10-29T01:07:38.510Z,99.90
2017-10-29T01:10:05.972Z,99.90
2017-10-29T01:12:33.433Z,99.90
2017-10-29T01:15:01.661Z,99.90
2017-10-29T01:17:29.138Z,99.90
2017-10-29T01:19:56.620Z,99.90
2017-10-29T01:22:24.081Z,99.90
2017-10-29T01:24:51.548Z,99.90
2017-10-29T01:27:19.787Z,99.90
2017-10-29T01:29:47.239Z,99.90
2017-10-29T01:32:15.461Z,99.90
2017-10-29T01:34:43.696Z,99.90
2017-10-29T01:37:11.179Z,99.90
2017-10-29T01:39:38.639Z,99.90
2017-10-29T01:42:06.108Z,99.90
2017-10-29T01:44:34.336Z,99.90
2017-10-29T01:47:01.811Z,99.90
2017-10-29T01:49:29.267Z,99.90
2017-10-29T01:51:57.501Z,99.90
2017-10-29T01:54:24.955Z,99.90
2017-10-29T01:56:52.427Z,99.90
2017-10-29T01:59:19.891Z,99.90
2017-10-29T02:01:47.751Z,99.90
2017-10-29T02:04:15.201Z,99.90
2017-10-29T02:06:42.671Z,99.90
2017-10-29T02:09:10.138Z,99.90
2017-10-29T02:11:37.627Z,99.90
2017-10-29T02:14:05.092Z,99.90
2017-10-29T02:16:32.559Z,99.90
2017-10-29T02:19:00.203Z,99.90
2017-10-29T02:21:27.659Z,99.90
2017-10-29T02:23:55.133Z,99.90
2017-10-29T02:26:22.578Z,99.90
2017-10-29T02:28:50.050Z,99.90
2017-10-29T02:31:17.506Z,99.90
2017-10-29T02:33:44.966Z,99.90
2017-10-29T02:36:12.424Z,99.90
2017-10-29T02:38:39.982Z,99.90
2017-10-29T02:41:08.213Z,99.90
2017-10-29T02:43:35.709Z,99.90
2017-10-29T02:46:03.177Z,99.90
2017-10-29T02:48:30.636Z,99.90
2017-10-29T02:50:58.107Z,99.90
2017-10-29T02:53:26.348Z,99.90
2017-10-29T02:55:53.809Z,99.90
2017-10-29T02:58:21.278Z,99.90
2017-10-29T03:00:48.735Z,99.90
2017-10-29T03:03:16.211Z,99.90
2017-10-29T03:05:44.438Z,99.90
2017-10-29T03:08:11.894Z,99.90
2017-10-29T03:10:39.368Z,99.90
2017-10-29T03:13:06.818Z,99.90
2017-10-29T03:15:34.302Z,99.90
2017-10-29T03:18:01.763Z,99.90
2017-10-29T03:20:29.234Z,99.90
2017-10-29T03:22:57.454Z,99.90
2017-10-29T03:25:24.918Z,99.90
2017-10-29T03:27:52.365Z,99.90
2017-10-29T03:30:19.840Z,99.90
2017-10-29T03:32:47.299Z,99.90
2017-10-29T03:35:14.758Z,99.90
2017-10-29T03:37:42.218Z,99.90
2017-10-29T03:40:09.682Z,99.90
2017-10-29T03:42:37.140Z,99.90
2017-10-29T03:45:04.616Z,99.90
2017-10-29T03:47:32.067Z,99.90
2017-10-29T03:49:59.531Z,99.90
2017-10-29T03:52:26.982Z,99.90
2017-10-29T03:54:54.478Z,99.90
2017-10-29T03:57:22.706Z,99.90
2017-10-29T03:59:50.163Z,99.90
2017-10-29T04:02:17.622Z,99.90
2017-10-29T04:04:45.118Z,99.90
2017-10-29T04:07:12.566Z,99.90
2017-10-29T04:09:40.058Z,99.90
2017-10-29T04:12:07.515Z,99.90
2017-10-29T04:14:34.978Z,99.90
2017-10-29T04:17:02.451Z,99.90
2017-10-29T04:19:29.902Z,99.90
2017-10-29T04:21:57.366Z,99.90
2017-10-29T04:24:24.820Z,99.90
2017-10-29T04:26:52.284Z,99.90
2017-10-29T04:29:19.746Z,99.90
2017-10-29T04:31:47.222Z,99.90
2017-10-29T04:34:14.687Z,99.90
2017-10-29T04:36:42.150Z,99.90
2017-10-29T04:39:09.607Z,99.90
2017-10-29T04:41:37.078Z,99.90
2017-10-29T04:44:04.551Z,99.90
2017-10-29T04:46:32.784Z,99.90
2017-10-29T04:49:01.342Z,99.90
2017-10-29T04:51:28.816Z,99.90
2017-10-29T04:53:56.270Z,99.90
2017-10-29T04:56:23.738Z,99.90
2017-10-29T04:58:51.207Z,99.90
2017-10-29T05:01:18.675Z,99.50
2017-10-29T05:03:46.130Z,99.90
2017-10-29T05:06:13.589Z,99.90
2017-10-29T05:08:41.067Z,99.90
2017-10-29T05:11:08.543Z,99.90
2017-10-29T05:13:36.767Z,99.50
2017-10-29T05:16:04.236Z,99.30
2017-10-29T05:18:31.702Z,98.90
2017-10-29T05:20:59.164Z,98.90
2017-10-29T05:23:26.636Z,99.20
2017-10-29T05:25:54.863Z,96.90
2017-10-29T05:28:22.331Z,96.80
2017-10-29T05:30:49.783Z,96.60
2017-10-29T05:33:17.249Z,96.30
2017-10-29T05:35:44.707Z,96.80
2017-10-29T05:38:12.176Z,96.80
2017-10-29T05:40:39.641Z,97.50
2017-10-29T05:43:07.107Z,98.00
2017-10-29T05:45:34.568Z,97.70
2017-10-29T05:48:02.039Z,98.00
2017-10-29T05:50:29.510Z,98.30
2017-10-29T05:52:57.736Z,98.60
2017-10-29T05:55:25.191Z,98.50
2017-10-29T05:57:52.657Z,98.40
2017-10-29T06:00:20.127Z,98.00
2017-10-29T06:02:47.588Z,97.70
2017-10-29T06:05:15.058Z,98.00
2017-10-29T06:07:43.294Z,98.40
2017-10-29T06:10:10.752Z,98.10
2017-10-29T06:12:38.228Z,97.70
2017-10-29T06:15:05.710Z,97.60
2017-10-29T06:17:33.939Z,97.50
2017-10-29T06:20:01.403Z,97.50
2017-10-29T06:22:28.862Z,97.60
2017-10-29T06:24:56.327Z,97.40
2017-10-29T06:27:24.615Z,97.20
2017-10-29T06:29:52.078Z,97.20
2017-10-29T06:32:19.531Z,97.40
2017-10-29T06:34:46.990Z,97.10
2017-10-29T06:37:14.449Z,96.90
2017-10-29T06:39:41.906Z,96.90
2017-10-29T06:42:09.357Z,97.00
2017-10-29T06:44:36.826Z,97.40
2017-10-29T06:47:04.376Z,97.50
2017-10-29T06:49:31.838Z,97.60
2017-10-29T06:51:59.308Z,97.30
2017-10-29T06:54:26.774Z,97.10
2017-10-29T06:56:55.002Z,97.00
2017-10-29T06:59:22.481Z,97.00
2017-10-29T07:01:49.935Z,96.90
2017-10-29T07:04:17.405Z,97.00
2017-10-29T07:06:44.888Z,97.30
2017-10-29T07:09:13.098Z,97.40
2017-10-29T07:11:40.571Z,97.40
2017-10-29T07:14:08.027Z,97.80
2017-10-29T07:16:35.495Z,97.60
2017-10-29T07:19:02.960Z,97.80
2017-10-29T07:21:30.430Z,98.10
2017-10-29T07:23:57.887Z,98.40
2017-10-29T07:26:25.355Z,98.50
2017-10-29T07:28:52.818Z,98.90
2017-10-29T07:31:21.047Z,98.90
2017-10-29T07:33:48.494Z,98.60
2017-10-29T07:36:15.988Z,98.80
2017-10-29T07:38:43.452Z,98.60
2017-10-29T07:41:10.924Z,98.30
2017-10-29T07:43:39.186Z,98.50
2017-10-29T07:46:06.650Z,98.50
2017-10-29T07:48:34.114Z,98.70
2017-10-29T07:51:01.578Z,98.70
2017-10-29T07:53:29.038Z,98.40
2017-10-29T07:55:56.560Z,98.30
2017-10-29T07:58:24.022Z,98.40
2017-10-29T08:00:52.306Z,97.90
2017-10-29T08:03:19.761Z,98.00
2017-10-29T08:05:47.232Z,98.00
2017-10-29T08:08:14.701Z,98.30
2017-10-29T08:10:42.159Z,98.40
2017-10-29T08:13:09.638Z,98.20
2017-10-29T08:15:37.851Z,98.60
2017-10-29T08:18:05.325Z,98.30
2017-10-29T08:20:32.787Z,98.50
2017-10-29T08:23:00.254Z,98.00
2017-10-29T08:25:27.718Z,98.30
2017-10-29T08:27:55.178Z,98.00
2017-10-29T08:30:22.640Z,98.30
2017-10-29T08:32:50.111Z,98.70
2017-10-29T08:35:18.331Z,99.90
2017-10-29T08:37:45.794Z,99.90
2017-10-29T08:40:13.271Z,99.90
2017-10-29T08:42:40.742Z,99.90
2017-10-29T08:45:08.207Z,99.90
2017-10-29T08:47:35.679Z,99.90
2017-10-29T08:50:03.915Z,99.90
2017-10-29T08:52:32.166Z,99.90
2017-10-29T08:54:59.622Z,99.90
2017-10-29T08:57:27.081Z,99.90
2017-10-29T08:59:54.542Z,99.90
2017-10-29T09:02:22.838Z,99.90
2017-10-29T09:04:50.285Z,99.90
2017-10-29T09:07:17.747Z,99.90
2017-10-29T09:09:45.205Z,99.90
2017-10-29T09:12:12.655Z,99.90
2017-10-29T09:14:40.119Z,99.90
2017-10-29T09:17:07.570Z,99.90
2017-10-29T09:19:35.069Z,99.90
2017-10-29T09:22:02.518Z,99.90
2017-10-29T09:24:29.992Z,99.90
2017-10-29T09:26:58.226Z,99.90
2017-10-29T09:29:25.733Z,99.90
2017-10-29T09:31:53.245Z,99.90
2017-10-29T09:34:20.751Z,99.90
2017-10-29T09:36:49.007Z,99.90
2017-10-29T09:39:16.481Z,99.90
2017-10-29T09:41:44.027Z,99.90
2017-10-29T09:44:11.505Z,99.90
2017-10-29T09:46:38.960Z,99.90
2017-10-29T09:49:06.417Z,99.90
2017-10-29T09:51:33.883Z,99.90
2017-10-29T09:54:02.121Z,99.90
2017-10-29T09:56:29.575Z,99.90
2017-10-29T09:58:57.060Z,99.90
2017-10-29T10:01:24.523Z,99.90
2017-10-29T10:03:52.758Z,99.90
2017-10-29T10:06:20.222Z,99.90
2017-10-29T10:08:47.690Z,99.90
2017-10-29T10:11:15.148Z,99.90
2017-10-29T10:13:42.624Z,99.90
2017-10-29T10:16:10.083Z,99.90
2017-10-29T10:18:37.631Z,99.90
2017-10-29T10:21:05.203Z,99.90
2017-10-29T10:23:32.654Z,99.90
2017-10-29T10:26:00.110Z,99.90
2017-10-29T10:28:27.575Z,99.90
2017-10-29T10:30:55.064Z,99.90
2017-10-29T10:33:23.316Z,99.90
2017-10-29T10:35:51.566Z,99.90
2017-10-29T10:38:19.043Z,99.90
2017-10-29T10:40:46.510Z,99.90
2017-10-29T10:43:13.982Z,99.90
2017-10-29T10:45:42.210Z,99.90
2017-10-29T10:48:09.667Z,99.90
2017-10-29T10:50:37.134Z,99.90
2017-10-29T10:53:04.603Z,99.90
2017-10-29T10:55:32.075Z,99.90
2017-10-29T10:57:59.527Z,99.90
2017-10-29T11:00:26.995Z,99.90
2017-10-29T11:02:54.459Z,99.90
2017-10-29T11:05:22.691Z,99.90
2017-10-29T11:07:50.538Z,99.90
2017-10-29T11:10:18.000Z,99.90
2017-10-29T11:12:45.503Z,99.90
2017-10-29T11:15:13.026Z,99.90
2017-10-29T11:17:40.481Z,99.90
2017-10-29T11:20:07.953Z,99.90
2017-10-29T11:22:35.423Z,99.90
2017-10-29T11:25:02.880Z,99.90
2017-10-29T11:27:30.365Z,99.90
2017-10-29T11:29:57.810Z,99.90
2017-10-29T11:32:25.356Z,99.90
2017-10-29T11:34:52.790Z,99.90
2017-10-29T11:37:23.826Z,99.90
2017-10-29T11:39:51.302Z,99.90
2017-10-29T11:42:19.016Z,99.90
2017-10-29T11:44:51.150Z,99.90
2017-10-29T11:47:19.728Z,99.90
2017-10-29T11:49:47.186Z,99.90
2017-10-29T11:52:14.687Z,99.90
2017-10-29T11:54:42.922Z,99.90
2017-10-29T11:57:10.492Z,99.90
2017-10-29T11:59:38.730Z,99.90
2017-10-29T12:02:06.197Z,99.90
2017-10-29T12:04:33.700Z,99.90
2017-10-29T12:07:01.943Z,99.90
2017-10-29T12:09:29.395Z,99.90
2017-10-29T12:11:56.868Z,99.90
2017-10-29T12:14:24.343Z,99.90
2017-10-29T12:16:51.888Z,99.90
2017-10-29T12:19:19.355Z,99.90
2017-10-29T12:21:48.324Z,99.90
2017-10-29T12:24:15.791Z,99.90
2017-10-29T12:26:43.246Z,99.90
2017-10-29T12:29:10.707Z,99.90
2017-10-29T12:31:38.179Z,99.90
2017-10-29T12:34:05.651Z,99.90
2017-10-29T12:36:33.870Z,99.90
2017-10-29T12:39:01.330Z,99.90
2017-10-29T12:41:28.795Z,99.90
2017-10-29T12:43:56.271Z,99.90
2017-10-29T12:46:23.729Z,99.90
2017-10-29T12:48:51.201Z,99.90
2017-10-29T12:51:18.807Z,99.90
2017-10-29T12:53:46.314Z,99.90
2017-10-29T12:56:13.888Z,99.90
2017-10-29T12:58:41.442Z,99.90
2017-10-29T13:01:08.911Z,99.90
2017-10-29T13:03:37.879Z,99.90
2017-10-29T13:06:05.330Z,99.90
2017-10-29T13:08:32.800Z,99.90
2017-10-29T13:11:00.248Z,99.90
2017-10-29T13:13:27.719Z,99.90
2017-10-29T13:15:55.175Z,99.90
2017-10-29T13:18:22.646Z,99.90
2017-10-29T13:20:51.627Z,99.90
2017-10-29T13:23:19.092Z,99.90
2017-10-29T13:25:47.218Z,99.90
2017-10-29T13:28:15.527Z,99.90
2017-10-29T13:30:42.982Z,99.90
2017-10-29T13:33:10.449Z,99.90
2017-10-29T13:35:38.734Z,99.90
2017-10-29T13:38:06.252Z,99.90
2017-10-29T13:40:33.774Z,99.90
2017-10-29T13:43:01.235Z,99.90
2017-10-29T13:45:29.465Z,99.90
2017-10-29T13:47:56.948Z,99.90
2017-10-29T13:50:24.400Z,99.90
2017-10-29T13:52:51.851Z,99.90
2017-10-29T13:55:19.330Z,99.90
2017-10-29T13:57:46.883Z,99.90
2017-10-29T14:00:14.356Z,99.90
2017-10-29T14:02:42.611Z,99.90
2017-10-29T14:05:10.095Z,99.90
2017-10-29T14:07:38.315Z,99.90
2017-10-29T14:10:05.791Z,99.90
2017-10-29T14:12:33.243Z,99.90
2017-10-29T14:15:00.706Z,99.90
2017-10-29T14:17:28.158Z,99.90
2017-10-29T14:19:55.622Z,99.90
2017-10-29T14:22:23.090Z,99.90
2017-10-29T14:24:50.654Z,99.90
2017-10-29T14:27:18.101Z,99.90
2017-10-29T14:29:46.857Z,99.90
2017-10-29T14:32:14.380Z,99.90
2017-10-29T14:34:42.634Z,99.90
2017-10-29T14:37:10.091Z,99.90
2017-10-29T14:39:37.556Z,99.90
2017-10-29T14:42:05.012Z,99.90
2017-10-29T14:44:32.470Z,99.90
2017-10-29T14:47:00.704Z,99.90
2017-10-29T14:49:28.168Z,99.90
2017-10-29T14:51:55.632Z,99.90
2017-10-29T14:54:23.127Z,99.90
2017-10-29T14:56:50.684Z,99.90
2017-10-29T14:59:18.158Z,99.90
2017-10-29T15:01:45.621Z,99.90
2017-10-29T15:04:13.842Z,99.90
2017-10-29T15:06:41.313Z,99.90
2017-10-29T15:09:08.776Z,99.90
2017-10-29T15:11:36.251Z,99.90
2017-10-29T15:14:03.715Z,99.90
2017-10-29T15:16:31.189Z,99.90
2017-10-29T15:18:59.420Z,99.90
2017-10-29T15:21:26.897Z,99.90
2017-10-29T15:23:54.463Z,99.90
2017-10-29T15:26:24.046Z,99.90
2017-10-29T15:28:51.490Z,99.90
2017-10-29T15:31:18.960Z,99.90
2017-10-29T15:33:46.423Z,99.90
2017-10-29T15:36:13.903Z,99.90
2017-10-29T15:38:41.454Z,99.90
2017-10-29T15:41:09.016Z,99.90
2017-10-29T15:43:36.488Z,99.90
2017-10-29T15:46:03.963Z,99.90
2017-10-29T15:48:32.190Z,99.90
2017-10-29T15:50:59.647Z,99.90
2017-10-29T15:53:27.128Z,99.90
2017-10-29T15:55:54.599Z,99.90
2017-10-29T15:58:22.078Z,99.90
2017-10-29T16:00:50.306Z,99.90
2017-10-29T16:03:17.767Z,99.90
2017-10-29T16:05:45.224Z,99.90
2017-10-29T16:08:12.713Z,99.90
2017-10-29T16:10:40.926Z,99.90
2017-10-29T16:13:08.400Z,99.90
2017-10-29T16:15:35.852Z,99.90
2017-10-29T16:18:03.347Z,99.90
2017-10-29T16:20:30.906Z,99.90
2017-10-29T16:22:58.466Z,99.90
2017-10-29T16:25:25.935Z,99.90
2017-10-29T16:27:53.506Z,99.90
2017-10-29T16:30:20.951Z,99.90
2017-10-29T16:32:48.401Z,99.90
2017-10-29T16:35:15.947Z,99.90
2017-10-29T16:37:43.412Z,99.90
2017-10-29T16:40:10.971Z,99.90
2017-10-29T16:42:38.527Z,99.90
2017-10-29T16:45:06.086Z,99.90
2017-10-29T16:47:33.551Z,99.90
2017-10-29T16:50:01.026Z,99.90
2017-10-29T16:52:29.258Z,99.90
2017-10-29T16:54:56.726Z,99.90
2017-10-29T16:57:24.210Z,99.90
2017-10-29T16:59:51.674Z,99.90
2017-10-29T17:02:19.221Z,99.90
2017-10-29T17:04:46.798Z,99.90
2017-10-29T17:07:14.278Z,99.90
2017-10-29T17:09:42.527Z,99.90
2017-10-29T17:12:09.983Z,99.90
2017-10-29T17:14:37.455Z,99.90
2017-10-29T17:17:04.999Z,99.90
2017-10-29T17:19:32.474Z,99.90
2017-10-29T17:22:00.707Z,99.90
2017-10-29T17:24:28.158Z,99.90
2017-10-29T17:26:55.649Z,99.90
2017-10-29T17:29:23.842Z,99.90
2017-10-29T17:31:51.370Z,99.90
2017-10-29T17:34:18.836Z,99.90
2017-10-29T17:36:46.314Z,99.90
2017-10-29T17:39:14.554Z,99.90
2017-10-29T17:41:42.129Z,99.90
2017-10-29T17:44:09.607Z,99.90
2017-10-29T17:46:38.695Z,99.90
2017-10-29T17:49:06.150Z,99.90
2017-10-29T17:51:33.623Z,99.90
2017-10-29T17:54:01.842Z,99.90
2017-10-29T17:56:29.324Z,99.90
2017-10-29T17:58:56.927Z,99.90
2017-10-29T18:01:25.173Z,99.90
2017-10-29T18:03:52.731Z,99.90
2017-10-29T18:06:20.206Z,99.90
2017-10-29T18:08:47.859Z,99.90
2017-10-29T18:11:16.127Z,99.90
2017-10-29T18:13:43.594Z,99.90
2017-10-29T18:16:11.070Z,99.90
2017-10-29T18:18:39.335Z,99.90
2017-10-29T18:21:06.905Z,99.90
2017-10-29T18:23:34.385Z,99.90
2017-10-29T18:26:01.903Z,99.90
2017-10-29T18:28:29.370Z,99.90
2017-10-29T18:30:56.824Z,99.90
2017-10-29T18:33:24.299Z,99.90
2017-10-29T18:35:52.538Z,99.90
2017-10-29T18:38:19.994Z,99.90
2017-10-29T18:40:47.454Z,99.90
2017-10-29T18:43:15.029Z,99.90
2017-10-29T18:45:42.494Z,99.90
2017-10-29T18:48:09.966Z,99.90
2017-10-29T18:50:38.217Z,99.90
2017-10-29T18:53:07.479Z,99.90
2017-10-29T18:55:34.979Z,99.90
2017-10-29T18:58:02.459Z,99.90
2017-10-29T19:00:30.681Z,99.90
2017-10-29T19:02:58.141Z,99.90
2017-10-29T19:05:25.903Z,99.90
2017-10-29T19:07:53.357Z,99.90
2017-10-29T19:10:20.829Z,99.90
2017-10-29T19:12:48.302Z,99.90
2017-10-29T19:15:15.867Z,99.90
2017-10-29T19:17:44.850Z,99.90
2017-10-29T19:20:12.343Z,99.90
2017-10-29T19:22:40.595Z,99.90
2017-10-29T19:25:08.059Z,99.90
2017-10-29T19:27:37.059Z,99.90
2017-10-29T19:30:05.347Z,99.90
2017-10-29T19:32:33.607Z,99.90
2017-10-29T19:35:01.103Z,99.90
2017-10-29T19:37:29.315Z,99.90
2017-10-29T19:39:56.798Z,99.90
2017-10-29T19:42:24.261Z,99.90
2017-10-29T19:44:51.819Z,99.90
2017-10-29T19:47:19.298Z,99.90
2017-10-29T19:49:47.526Z,99.90
2017-10-29T19:52:15.019Z,99.90
2017-10-29T19:54:42.487Z,99.90
2017-10-29T19:57:10.739Z,99.90
2017-10-29T19:59:38.216Z,99.90
2017-10-29T20:02:05.759Z,99.90
2017-10-29T20:04:33.223Z,99.90
2017-10-29T20:07:00.776Z,99.90
2017-10-29T20:09:28.238Z,99.90
2017-10-29T20:11:55.690Z,99.90
2017-10-29T20:14:23.251Z,99.90
2017-10-29T20:16:50.715Z,99.90
2017-10-29T20:19:18.270Z,99.90
2017-10-29T20:21:45.718Z,99.90
2017-10-29T20:24:13.194Z,99.90
2017-10-29T20:26:40.646Z,99.90
2017-10-29T20:29:08.121Z,99.90
2017-10-29T20:31:35.664Z,99.90
2017-10-29T20:34:03.947Z,99.90
2017-10-29T20:36:31.404Z,99.90
2017-10-29T20:38:58.962Z,99.90
2017-10-29T20:41:26.715Z,99.90
2017-10-29T20:43:54.187Z,99.90
2017-10-29T20:46:22.311Z,99.90
2017-10-29T20:48:49.784Z,99.90
2017-10-29T20:51:17.244Z,99.90
2017-10-29T20:53:44.755Z,99.90
2017-10-29T20:56:12.992Z,99.90
2017-10-29T20:58:41.404Z,99.90
2017-10-29T21:01:08.966Z,99.90
2017-10-29T21:03:36.516Z,99.90
2017-10-29T21:06:03.995Z,99.90
2017-10-29T21:08:32.221Z,99.90
2017-10-29T21:10:59.686Z,99.90
2017-10-29T21:13:27.145Z,99.90
2017-10-29T21:15:54.618Z,99.90
2017-10-29T21:18:22.074Z,99.90
2017-10-29T21:20:49.560Z,99.90
2017-10-29T21:23:17.079Z,99.90
2017-10-29T21:25:44.555Z,99.90
2017-10-29T21:28:12.026Z,99.90
2017-10-29T21:30:39.574Z,99.90
2017-10-29T21:33:08.533Z,99.90
2017-10-29T21:35:36.003Z,99.90
2017-10-29T21:38:03.483Z,99.90
2017-10-29T21:40:30.962Z,99.90
2017-10-29T21:42:59.178Z,99.90
2017-10-29T21:45:26.670Z,99.90
2017-10-29T21:47:54.133Z,99.90
2017-10-29T21:50:21.607Z,99.90
2017-10-29T21:52:49.860Z,99.90
2017-10-29T21:55:17.321Z,99.90
2017-10-29T21:57:44.880Z,99.90
2017-10-29T22:00:12.346Z,99.90
2017-10-29T22:02:39.899Z,99.90
2017-10-29T22:05:07.362Z,99.90
2017-10-29T22:07:34.895Z,99.90
2017-10-29T22:10:02.361Z,99.90
2017-10-29T22:12:29.819Z,99.90
2017-10-29T22:14:57.283Z,99.90
2017-10-29T22:17:24.761Z,99.90
2017-10-29T22:19:53.226Z,99.90
2017-10-29T22:22:20.794Z,99.90
2017-10-29T22:24:48.259Z,99.90
2017-10-29T22:27:15.729Z,99.90
2017-10-29T22:29:43.183Z,99.90
2017-10-29T22:32:10.646Z,99.90
2017-10-29T22:34:38.926Z,99.90
2017-10-29T22:37:07.176Z,99.90
2017-10-29T22:39:34.634Z,99.90
2017-10-29T22:42:02.110Z,99.90
2017-10-29T22:44:30.354Z,99.90
2017-10-29T22:46:57.926Z,99.90
2017-10-29T22:49:25.412Z,99.90
2017-10-29T22:51:53.668Z,99.90
2017-10-29T22:54:21.133Z,99.90
2017-10-29T22:56:48.609Z,99.90
2017-10-29T22:59:16.858Z,99.90
2017-10-29T23:01:44.317Z,99.90
2017-10-29T23:04:11.882Z,99.90
2017-10-29T23:06:47.231Z,99.90
2017-10-29T23:09:23.375Z,99.90
2017-10-29T23:11:50.946Z,99.90
2017-10-29T23:14:18.448Z,99.90
2017-10-29T23:16:45.959Z,99.90
2017-10-29T23:19:13.523Z,99.90
2017-10-29T23:21:40.982Z,99.90
2017-10-29T23:24:08.497Z,99.90
2017-10-29T23:26:35.998Z,99.90
2017-10-29T23:29:03.555Z,99.90
2017-10-29T23:31:31.064Z,99.90
2017-10-29T23:33:58.556Z,99.90
2017-10-29T23:36:27.576Z,99.90
2017-10-29T23:38:55.035Z,99.90
2017-10-29T23:41:22.508Z,99.90
2017-10-29T23:43:50.722Z,99.90
2017-10-29T23:46:18.201Z,99.90
2017-10-29T23:48:45.675Z,99.90
2017-10-29T23:51:13.148Z,99.90
2017-10-29T23:53:41.388Z,99.90
2017-10-29T23:56:08.901Z,99.90
2017-10-29T23:58:36.366Z,99.90
